Elkins, New Hampshire
Current Conditions -  °F | °C
As of 4:53 AM on Sunday 23 Nov 2014 (Local Time) from KLEB Reporting Station
Overcast Overcast  
Wind Chill: 34°   Ceiling: 2200
Heat Index: 40°   Visibility: 10mi
Dew Point: 35°   Wind: 8mph
Humidity: 83%   Direction: 170°S
Pressure: 30.01"   Gusts: NA
Location:  43.42°N, 71.94°W
Report Text: KLEB 230953Z AUTO 17007KT 10SM OVC022 04/02 A3001 RMK AO2 SLP167 T00440017
Loading
Personal Weather Stations






























Interactive Weather Map New forecast layout! Learn more

10-Day Weather Forecast

Advertisements
Track Severe Weather on mobile